createdAt,value
2022-11-03T00:02:39.428Z,100.00
2022-11-03T00:07:44.792Z,100.00
2022-11-03T00:12:48.843Z,100.00
2022-11-03T00:17:52.803Z,100.00
2022-11-03T00:22:58.583Z,100.00
2022-11-03T00:33:07.446Z,100.00
2022-11-03T00:38:13.097Z,100.00
2022-11-03T00:43:16.996Z,100.00
2022-11-03T00:48:34.145Z,100.00
2022-11-03T00:53:41.585Z,100.00
2022-11-03T00:58:45.971Z,100.00
2022-11-03T01:04:05.469Z,100.00
2022-11-03T01:09:10.767Z,100.00
2022-11-03T01:14:17.220Z,100.00
2022-11-03T01:19:21.401Z,100.00
2022-11-03T01:24:26.873Z,100.00
2022-11-03T01:29:31.034Z,100.00
2022-11-03T01:34:35.071Z,100.00
2022-11-03T01:39:40.372Z,100.00
2022-11-03T01:44:48.684Z,100.00
2022-11-03T01:49:57.287Z,100.00
2022-11-03T01:55:06.056Z,100.00
2022-11-03T02:00:11.204Z,100.00
2022-11-03T02:05:19.442Z,100.00
2022-11-03T02:10:25.962Z,100.00
2022-11-03T02:15:31.703Z,100.00
2022-11-03T02:20:36.608Z,100.00
2022-11-03T02:25:46.963Z,100.00
2022-11-03T02:30:59.465Z,100.00
2022-11-03T02:36:12.011Z,100.00
2022-11-03T02:41:19.208Z,100.00
2022-11-03T02:46:25.320Z,100.00
2022-11-03T02:51:29.464Z,100.00
2022-11-03T02:56:39.727Z,100.00
2022-11-03T03:01:51.024Z,100.00
2022-11-03T03:06:59.217Z,100.00
2022-11-03T03:12:09.427Z,100.00
2022-11-03T03:17:18.348Z,100.00
2022-11-03T03:22:29.493Z,100.00
2022-11-03T03:27:36.696Z,100.00
2022-11-03T03:32:46.097Z,100.00
2022-11-03T03:37:53.230Z,100.00
2022-11-03T03:42:59.575Z,100.00
2022-11-03T03:48:05.321Z,100.00
2022-11-03T03:53:13.195Z,100.00
2022-11-03T03:58:19.037Z,100.00
2022-11-03T04:03:24.965Z,100.00
2022-11-03T04:08:28.894Z,100.00
2022-11-03T04:13:51.974Z,100.00
2022-11-03T04:19:13.810Z,100.00
2022-11-03T04:24:17.867Z,100.00
2022-11-03T04:29:23.533Z,100.00
2022-11-03T04:34:27.678Z,100.00
2022-11-03T04:39:31.669Z,100.00
2022-11-03T04:44:37.115Z,100.00
2022-11-03T04:49:41.903Z,100.00
2022-11-03T04:54:47.741Z,100.00
2022-11-03T04:59:53.100Z,100.00
2022-11-03T05:04:57.170Z,100.00
2022-11-03T05:10:01.783Z,100.00
2022-11-03T05:15:24.849Z,100.00
2022-11-03T05:20:36.238Z,100.00
2022-11-03T05:25:43.778Z,100.00
2022-11-03T05:30:50.097Z,100.00
2022-11-03T05:35:54.970Z,100.00
2022-11-03T05:41:00.380Z,100.00
2022-11-03T05:51:20.344Z,100.00
2022-11-03T05:56:26.141Z,100.00
2022-11-03T06:01:33.819Z,100.00
2022-11-03T06:06:40.114Z,100.00
2022-11-03T06:11:45.213Z,100.00
2022-11-03T06:16:52.634Z,100.00
2022-11-03T06:22:00.128Z,100.00
2022-11-03T06:27:03.869Z,95.67
2022-11-03T06:32:13.652Z,82.30
2022-11-03T06:37:21.917Z,90.92
2022-11-03T06:42:31.817Z,92.93
2022-11-03T06:47:37.949Z,82.51
2022-11-03T06:58:01.625Z,77.90
2022-11-03T07:03:11.944Z,71.10
2022-11-03T07:08:23.561Z,71.03
2022-11-03T07:13:30.359Z,70.61
2022-11-03T07:18:41.052Z,65.41
2022-11-03T07:23:47.196Z,64.82
2022-11-03T07:28:52.101Z,61.39
2022-11-03T07:34:00.103Z,58.70
2022-11-03T07:39:04.215Z,55.11
2022-11-03T07:44:17.042Z,53.07
2022-11-03T07:49:29.264Z,53.79
2022-11-03T07:54:35.527Z,52.22
2022-11-03T07:59:42.564Z,50.65
2022-11-03T08:04:47.982Z,50.81
2022-11-03T08:09:51.919Z,50.34
2022-11-03T08:14:55.887Z,50.81
2022-11-03T08:20:01.214Z,50.21
2022-11-03T08:25:05.456Z,48.93
2022-11-03T08:30:10.724Z,47.33
2022-11-03T08:35:17.085Z,47.15
2022-11-03T08:40:21.136Z,47.94
2022-11-03T08:45:25.085Z,45.81
2022-11-03T08:50:30.597Z,44.32
2022-11-03T08:55:34.676Z,42.90
2022-11-03T09:00:41.111Z,44.74
2022-11-03T09:05:47.072Z,42.88
2022-11-03T09:10:51.152Z,40.87
2022-11-03T09:15:55.096Z,42.46
2022-11-03T09:21:00.432Z,40.86
2022-11-03T09:26:06.344Z,39.31
2022-11-03T09:31:10.311Z,41.34
2022-11-03T09:36:15.803Z,40.10
2022-11-03T09:41:28.083Z,38.87
2022-11-03T09:46:43.737Z,38.33
2022-11-03T09:51:49.115Z,39.08
2022-11-03T09:56:53.007Z,38.97
2022-11-03T10:01:57.049Z,35.74
2022-11-03T10:07:02.526Z,37.63
2022-11-03T10:12:09.388Z,34.91
2022-11-03T10:17:16.125Z,36.02
2022-11-03T10:22:21.776Z,35.66
2022-11-03T10:27:27.574Z,36.33
2022-11-03T10:32:34.391Z,34.00
2022-11-03T10:37:39.915Z,35.49
2022-11-03T10:42:59.806Z,35.19
2022-11-03T10:48:07.316Z,34.39
2022-11-03T10:53:18.965Z,34.59
2022-11-03T10:58:23.207Z,35.08
2022-11-03T11:03:27.982Z,33.07
2022-11-03T11:08:33.655Z,35.04
2022-11-03T11:13:37.742Z,32.62
2022-11-03T11:19:05.157Z,31.55
2022-11-03T11:24:11.481Z,33.49
2022-11-03T11:29:42.785Z,31.88
2022-11-03T11:34:46.760Z,30.23
2022-11-03T11:39:52.097Z,28.96
2022-11-03T11:45:06.395Z,32.04
2022-11-03T11:50:28.011Z,30.93
2022-11-03T11:55:39.591Z,31.12
2022-11-03T12:00:53.720Z,30.02
2022-11-03T12:05:57.888Z,29.82
2022-11-03T12:11:05.403Z,30.38
2022-11-03T12:16:10.069Z,29.22
2022-11-03T12:21:15.763Z,30.60
2022-11-03T12:26:41.710Z,30.42
2022-11-03T12:31:45.677Z,31.54
2022-11-03T12:36:54.734Z,31.72
2022-11-03T12:42:01.556Z,32.09
2022-11-03T12:47:05.540Z,30.89
2022-11-03T12:52:10.623Z,32.97
2022-11-03T12:57:15.944Z,31.41
2022-11-03T13:02:20.072Z,32.95
2022-11-03T13:07:28.993Z,31.71
2022-11-03T13:12:36.856Z,32.23
2022-11-03T13:18:07.106Z,32.88
2022-11-03T13:23:06.000Z,34.11
2022-11-03T13:28:11.589Z,33.62
2022-11-03T13:33:15.503Z,33.96
2022-11-03T13:38:19.491Z,35.21
2022-11-03T13:43:25.026Z,35.58
2022-11-03T13:59:28.203Z,36.28
2022-11-03T14:04:41.643Z,37.33
2022-11-03T14:09:46.091Z,37.95
2022-11-03T14:14:51.390Z,38.93
2022-11-03T14:19:59.305Z,39.44
2022-11-03T14:25:07.803Z,40.64
2022-11-03T14:30:14.203Z,40.96
2022-11-03T14:35:18.912Z,42.68
2022-11-03T14:40:40.501Z,43.26
2022-11-03T14:45:46.048Z,44.67
2022-11-03T14:50:49.988Z,44.83
2022-11-03T14:55:53.891Z,45.28
2022-11-03T15:00:59.306Z,46.06
2022-11-03T15:06:03.255Z,46.61
2022-11-03T15:11:10.029Z,47.51
2022-11-03T15:16:15.559Z,49.11
2022-11-03T15:21:19.992Z,50.43
2022-11-03T15:26:24.312Z,51.31
2022-11-03T15:31:29.648Z,52.07
2022-11-03T15:36:34.512Z,53.13
2022-11-03T15:41:39.656Z,54.60
2022-11-03T15:46:45.107Z,57.55
2022-11-03T15:51:49.222Z,60.90
2022-11-03T15:56:54.313Z,62.93
2022-11-03T16:02:08.605Z,61.73
2022-11-03T16:07:23.452Z,62.49
2022-11-03T16:12:27.356Z,64.84
2022-11-03T16:17:33.167Z,65.35
2022-11-03T16:22:37.392Z,66.90
2022-11-03T16:27:41.300Z,68.29
2022-11-03T16:32:46.682Z,69.63
2022-11-03T16:37:50.744Z,69.49
2022-11-03T16:42:54.623Z,69.16
2022-11-03T16:47:59.995Z,70.47
2022-11-03T16:53:04.337Z,70.34
2022-11-03T16:58:08.783Z,70.81
2022-11-03T17:03:14.430Z,71.47
2022-11-03T17:08:50.793Z,72.25
2022-11-03T17:13:42.838Z,72.53
2022-11-03T17:18:48.357Z,74.41
2022-11-03T17:23:52.485Z,78.99
2022-11-03T17:28:58.619Z,80.10
2022-11-03T17:34:04.441Z,80.40
2022-11-03T17:39:08.419Z,82.97
2022-11-03T17:44:13.141Z,84.78
2022-11-03T17:49:18.566Z,86.27
2022-11-03T17:54:23.405Z,85.50
2022-11-03T17:59:28.073Z,88.17
2022-11-03T18:04:33.440Z,89.10
2022-11-03T18:09:37.494Z,89.16
2022-11-03T18:14:41.553Z,91.17
2022-11-03T18:19:46.919Z,92.63
2022-11-03T18:24:52.433Z,93.35
2022-11-03T18:29:56.665Z,94.61
2022-11-03T18:35:04.695Z,95.59
2022-11-03T18:40:12.211Z,96.62
2022-11-03T18:45:19.001Z,96.91
2022-11-03T18:50:24.460Z,97.51
2022-11-03T18:55:28.520Z,98.67
2022-11-03T19:00:32.550Z,97.40
2022-11-03T19:05:38.498Z,99.22
2022-11-03T19:10:43.915Z,99.15
2022-11-03T19:15:48.131Z,100.00
2022-11-03T19:20:53.527Z,97.79
2022-11-03T19:26:01.041Z,98.13
2022-11-03T19:31:04.887Z,100.00
2022-11-03T19:36:10.982Z,100.00
2022-11-03T19:41:34.747Z,100.00
2022-11-03T19:46:40.527Z,100.00
2022-11-03T19:51:46.027Z,100.00
2022-11-03T19:56:49.999Z,100.00
2022-11-03T20:01:54.087Z,100.00
2022-11-03T20:06:59.497Z,100.00
2022-11-03T20:12:07.525Z,100.00
2022-11-03T20:17:14.232Z,100.00
2022-11-03T20:22:28.604Z,100.00
2022-11-03T20:27:33.789Z,100.00
2022-11-03T20:32:37.768Z,100.00
2022-11-03T20:37:44.878Z,100.00
2022-11-03T20:42:52.000Z,100.00
2022-11-03T20:47:56.066Z,100.00
2022-11-03T20:53:01.761Z,100.00
2022-11-03T20:58:07.554Z,100.00
2022-11-03T21:03:37.558Z,100.00
2022-11-03T21:08:44.180Z,100.00
2022-11-03T21:13:48.151Z,100.00
2022-11-03T21:19:09.644Z,100.00
2022-11-03T21:24:15.072Z,100.00
2022-11-03T21:29:27.880Z,100.00
2022-11-03T21:34:44.020Z,100.00
2022-11-03T21:39:49.347Z,100.00
2022-11-03T21:44:53.323Z,100.00
2022-11-03T21:49:57.393Z,100.00
2022-11-03T21:55:04.255Z,100.00
2022-11-03T22:00:09.774Z,100.00
2022-11-03T22:05:14.029Z,100.00
2022-11-03T22:10:19.485Z,100.00
2022-11-03T22:15:43.326Z,100.00
2022-11-03T22:21:19.171Z,100.00
2022-11-03T22:26:41.879Z,100.00
2022-11-03T22:31:46.088Z,100.00
2022-11-03T22:36:50.039Z,100.00
2022-11-03T22:42:12.902Z,100.00
2022-11-03T22:47:18.893Z,100.00
2022-11-03T22:52:23.090Z,100.00
2022-11-03T22:57:28.456Z,100.00
2022-11-03T23:02:32.947Z,100.00
2022-11-03T23:07:41.266Z,100.00
2022-11-03T23:12:47.151Z,100.00
2022-11-03T23:18:08.225Z,100.00
2022-11-03T23:23:32.677Z,100.00
2022-11-03T23:28:38.138Z,100.00
2022-11-03T23:33:42.655Z,100.00
2022-11-03T23:38:46.781Z,100.00
2022-11-03T23:43:53.876Z,100.00
2022-11-03T23:48:58.809Z,100.00
2022-11-03T23:54:04.778Z,100.00
2022-11-03T23:59:10.950Z,100.00
